createdAt,value
2022-12-18T00:01:27.500Z,11.68
2022-12-18T00:03:55.257Z,8.40
2022-12-18T00:06:23.303Z,9.93
2022-12-18T00:08:50.168Z,8.75
2022-12-18T00:11:22.389Z,7.68
2022-12-18T00:13:50.748Z,9.73
2022-12-18T00:16:21.519Z,8.23
2022-12-18T00:18:53.483Z,9.45
2022-12-18T00:21:21.626Z,9.60
2022-12-18T00:23:49.463Z,10.60
2022-12-18T00:26:18.774Z,8.85
2022-12-18T00:28:46.192Z,8.80
2022-12-18T00:31:16.725Z,9.02
2022-12-18T00:33:44.237Z,8.80
2022-12-18T00:36:13.143Z,7.65
2022-12-18T00:38:40.114Z,7.68
2022-12-18T00:41:07.869Z,8.73
2022-12-18T00:43:36.874Z,9.00
2022-12-18T00:46:03.968Z,7.63
2022-12-18T00:48:32.837Z,9.45
2022-12-18T00:51:00.691Z,8.60
2022-12-18T00:53:27.299Z,8.55
2022-12-18T00:55:53.861Z,9.68
2022-12-18T00:58:22.937Z,7.82
2022-12-18T01:00:49.544Z,8.40
2022-12-18T01:03:16.266Z,8.30
2022-12-18T01:05:44.403Z,8.07
2022-12-18T01:08:12.049Z,8.43
2022-12-18T01:10:42.063Z,8.68
2022-12-18T01:13:08.872Z,7.93
2022-12-18T01:15:35.979Z,8.75
2022-12-18T01:18:02.560Z,8.48
2022-12-18T01:20:31.781Z,7.80
2022-12-18T01:22:58.793Z,8.43
2022-12-18T01:25:26.080Z,7.45
2022-12-18T01:27:53.633Z,6.90
2022-12-18T01:30:20.744Z,7.22
2022-12-18T01:32:47.318Z,7.35
2022-12-18T01:35:14.066Z,8.93
2022-12-18T01:37:40.658Z,7.00
2022-12-18T01:40:08.236Z,7.20
2022-12-18T01:42:34.791Z,7.85
2022-12-18T01:45:10.063Z,7.15
2022-12-18T01:47:47.601Z,7.18
2022-12-18T01:50:20.934Z,6.05
2022-12-18T01:52:50.054Z,6.60
2022-12-18T01:55:19.842Z,7.32
2022-12-18T01:57:47.987Z,10.07
2022-12-18T02:00:18.049Z,6.72
2022-12-18T02:02:46.193Z,7.57
2022-12-18T02:05:17.334Z,6.72
2022-12-18T02:07:57.170Z,7.45
2022-12-18T02:10:29.673Z,6.70
2022-12-18T02:13:19.065Z,6.60
2022-12-18T02:16:17.060Z,5.60
2022-12-18T02:18:48.245Z,6.97
2022-12-18T02:21:51.664Z,5.70
2022-12-18T02:24:34.326Z,6.93
2022-12-18T02:27:06.474Z,6.55
2022-12-18T02:29:45.345Z,6.72
2022-12-18T02:32:15.986Z,6.47
2022-12-18T02:34:44.383Z,5.65
2022-12-18T02:37:17.762Z,6.75
2022-12-18T02:39:45.911Z,6.30
2022-12-18T02:42:14.151Z,6.38
2022-12-18T02:44:48.986Z,5.43
2022-12-18T02:47:22.576Z,6.13
2022-12-18T02:49:58.425Z,5.78
2022-12-18T02:53:07.443Z,6.60
2022-12-18T02:55:43.020Z,5.65
2022-12-18T02:58:21.820Z,6.05
2022-12-18T03:00:59.785Z,6.75
2022-12-18T03:03:39.685Z,6.18
2022-12-18T03:06:16.019Z,6.80
2022-12-18T03:08:51.792Z,6.45
2022-12-18T03:11:39.194Z,6.15
2022-12-18T03:14:08.723Z,6.82
2022-12-18T03:16:36.138Z,6.50
2022-12-18T03:19:06.189Z,6.78
2022-12-18T03:21:55.027Z,7.30
2022-12-18T03:24:25.480Z,8.50
2022-12-18T03:26:55.932Z,6.80
2022-12-18T03:29:31.042Z,8.55
2022-12-18T03:32:04.244Z,10.32
2022-12-18T03:37:02.957Z,9.65
2022-12-18T03:39:31.834Z,7.88
2022-12-18T03:42:09.632Z,8.32
2022-12-18T03:44:54.354Z,8.15
2022-12-18T03:47:37.656Z,8.43
2022-12-18T03:50:13.139Z,11.02
2022-12-18T03:52:56.168Z,7.60
2022-12-18T03:55:24.094Z,7.57
2022-12-18T03:57:59.796Z,7.38
2022-12-18T04:00:32.989Z,7.20
2022-12-18T04:03:07.036Z,7.13
2022-12-18T04:05:41.899Z,8.27
2022-12-18T04:08:08.710Z,7.18
2022-12-18T04:10:38.946Z,7.22
2022-12-18T04:13:05.674Z,9.02
2022-12-18T04:15:35.871Z,6.22
2022-12-18T04:18:05.135Z,6.55
2022-12-18T04:20:39.221Z,6.38
2022-12-18T04:23:06.155Z,6.40
2022-12-18T04:25:33.178Z,6.88
2022-12-18T04:28:09.302Z,7.05
2022-12-18T04:30:38.102Z,6.72
2022-12-18T04:33:10.996Z,7.15
2022-12-18T04:38:09.327Z,7.70
2022-12-18T04:40:36.618Z,5.82
2022-12-18T04:43:06.455Z,6.22
2022-12-18T04:45:33.564Z,6.57
2022-12-18T04:48:00.942Z,6.07
2022-12-18T04:50:28.148Z,8.75
2022-12-18T04:52:58.232Z,5.18
2022-12-18T04:55:26.510Z,4.68
2022-12-18T04:57:53.329Z,5.80
2022-12-18T05:00:20.710Z,6.05
2022-12-18T05:02:47.521Z,5.72
2022-12-18T05:05:15.233Z,6.63
2022-12-18T05:07:41.805Z,7.72
2022-12-18T05:10:09.629Z,7.95
2022-12-18T05:12:56.995Z,8.20
2022-12-18T05:15:23.699Z,6.60
2022-12-18T05:17:50.374Z,4.80
2022-12-18T05:20:17.220Z,5.10
2022-12-18T05:22:43.977Z,6.60
2022-12-18T05:25:10.705Z,7.55
2022-12-18T05:27:37.310Z,6.70
2022-12-18T05:30:04.447Z,6.25
2022-12-18T05:32:31.035Z,5.43
2022-12-18T05:34:58.240Z,4.22
2022-12-18T05:37:24.802Z,9.02
2022-12-18T05:39:51.530Z,5.05
2022-12-18T05:42:19.235Z,7.30
2022-12-18T05:44:45.856Z,5.30
2022-12-18T05:47:12.372Z,8.85
2022-12-18T05:49:38.952Z,7.07
2022-12-18T05:52:05.854Z,5.78
2022-12-18T05:54:32.676Z,4.65
2022-12-18T05:56:59.593Z,7.72
2022-12-18T06:03:43.079Z,6.68
2022-12-18T06:06:16.526Z,6.32
2022-12-18T06:08:46.495Z,7.63
2022-12-18T06:11:14.209Z,6.88
2022-12-18T06:13:41.592Z,4.95
2022-12-18T06:16:09.190Z,6.38
2022-12-18T06:18:38.462Z,4.80
2022-12-18T06:21:05.143Z,5.93
2022-12-18T06:23:34.993Z,6.22
2022-12-18T06:26:06.988Z,6.88
2022-12-18T06:28:33.716Z,4.10
2022-12-18T06:31:01.030Z,5.28
2022-12-18T06:33:29.032Z,6.03
2022-12-18T06:36:08.391Z,9.68
2022-12-18T06:38:35.670Z,5.72
2022-12-18T06:41:11.014Z,5.88
2022-12-18T06:43:38.059Z,7.13
2022-12-18T06:46:05.947Z,9.40
2022-12-18T06:48:33.359Z,13.23
2022-12-18T06:51:00.209Z,12.00
2022-12-18T06:53:26.827Z,16.15
2022-12-18T06:55:53.482Z,13.48
2022-12-18T06:58:21.193Z,17.02
2022-12-18T07:00:47.827Z,18.45
2022-12-18T07:03:14.811Z,23.30
2022-12-18T07:05:41.877Z,16.83
2022-12-18T07:08:08.419Z,19.50
2022-12-18T07:10:46.287Z,21.63
2022-12-18T07:13:14.195Z,19.17
2022-12-18T07:15:41.546Z,21.85
2022-12-18T07:18:08.478Z,25.85
2022-12-18T07:20:35.077Z,23.17
2022-12-18T07:23:04.665Z,24.40
2022-12-18T07:25:31.579Z,22.75
2022-12-18T07:27:58.754Z,22.77
2022-12-18T07:30:25.517Z,24.23
2022-12-18T07:32:52.108Z,19.85
2022-12-18T07:35:23.363Z,19.27
2022-12-18T07:37:51.527Z,23.40
2022-12-18T07:40:18.269Z,18.00
2022-12-18T07:42:44.914Z,19.75
2022-12-18T07:45:11.823Z,14.85
2022-12-18T07:47:48.180Z,17.90
2022-12-18T07:50:15.328Z,17.60
2022-12-18T07:52:42.088Z,19.15
2022-12-18T07:55:12.642Z,18.88
2022-12-18T07:57:50.754Z,16.77
2022-12-18T08:00:18.764Z,22.23
2022-12-18T08:02:45.561Z,19.83
2022-12-18T08:05:12.171Z,13.45
2022-12-18T08:07:39.044Z,15.25
2022-12-18T08:10:06.566Z,17.63
2022-12-18T08:12:33.348Z,14.70
2022-12-18T08:19:13.252Z,13.98
2022-12-18T08:21:39.918Z,14.98
2022-12-18T08:24:06.860Z,14.55
2022-12-18T08:26:33.576Z,15.48
2022-12-18T08:29:01.231Z,12.88
2022-12-18T08:31:29.622Z,11.57
2022-12-18T08:33:56.844Z,18.27
2022-12-18T08:36:24.194Z,12.15
2022-12-18T08:38:51.641Z,16.02
2022-12-18T08:41:19.136Z,13.07
2022-12-18T08:44:04.210Z,21.05
2022-12-18T08:46:41.215Z,15.93
2022-12-18T08:49:10.379Z,11.10
2022-12-18T08:51:37.805Z,12.52
2022-12-18T08:54:06.519Z,16.05
2022-12-18T08:56:33.975Z,12.32
2022-12-18T08:59:01.263Z,16.75
2022-12-18T09:01:28.250Z,15.43
2022-12-18T09:03:55.022Z,13.05
2022-12-18T09:06:23.564Z,16.80
2022-12-18T09:08:50.146Z,17.33
2022-12-18T09:11:21.363Z,12.95
2022-12-18T09:13:47.961Z,11.10
2022-12-18T09:16:14.663Z,8.77
2022-12-18T09:18:42.795Z,12.70
2022-12-18T09:21:17.396Z,30.20
2022-12-18T09:23:45.179Z,14.90
2022-12-18T09:26:11.788Z,11.10
2022-12-18T09:28:38.856Z,13.45
2022-12-18T09:31:08.560Z,12.18
2022-12-18T09:33:36.952Z,11.70
2022-12-18T09:36:05.340Z,9.60
2022-12-18T09:38:32.400Z,15.55
2022-12-18T09:41:04.956Z,10.45
2022-12-18T09:43:42.369Z,9.15
2022-12-18T09:46:13.064Z,10.68
2022-12-18T09:48:43.940Z,17.63
2022-12-18T09:51:19.291Z,12.93
2022-12-18T09:53:57.695Z,15.23
2022-12-18T09:56:28.129Z,22.83
2022-12-18T09:59:02.476Z,20.88
2022-12-18T10:01:57.223Z,17.23
2022-12-18T10:04:25.168Z,22.13
2022-12-18T10:07:33.448Z,22.95
2022-12-18T10:10:11.239Z,17.83
2022-12-18T10:12:48.220Z,18.83
2022-12-18T10:15:37.397Z,22.67
2022-12-18T10:18:25.115Z,16.05
2022-12-18T10:20:55.774Z,20.00
2022-12-18T10:24:01.394Z,20.58
2022-12-18T10:26:28.225Z,25.73
2022-12-18T10:28:55.320Z,17.75
2022-12-18T10:31:24.892Z,15.52
2022-12-18T10:33:55.174Z,21.65
2022-12-18T10:36:24.975Z,16.20
2022-12-18T10:38:52.219Z,21.30
2022-12-18T10:41:19.543Z,33.13
2022-12-18T10:43:48.791Z,18.23
2022-12-18T10:46:18.344Z,19.38
2022-12-18T10:48:54.344Z,27.05
2022-12-18T10:51:24.014Z,19.77
2022-12-18T10:54:16.787Z,12.98
2022-12-18T10:56:43.718Z,19.02
2022-12-18T10:59:14.345Z,14.30
2022-12-18T11:01:51.906Z,16.52
2022-12-18T11:04:27.751Z,12.20
2022-12-18T11:06:58.317Z,12.52
2022-12-18T11:09:33.167Z,10.43
2022-12-18T11:12:02.003Z,16.20
2022-12-18T11:14:33.500Z,15.85
2022-12-18T11:19:57.440Z,13.63
2022-12-18T11:22:30.411Z,11.95
2022-12-18T11:25:32.583Z,8.82
2022-12-18T11:27:55.998Z,12.07
2022-12-18T11:30:24.757Z,12.55
2022-12-18T11:32:57.555Z,9.52
2022-12-18T11:36:00.492Z,28.67
2022-12-18T11:38:30.779Z,10.50
2022-12-18T11:41:01.912Z,11.07
2022-12-18T11:44:02.344Z,11.18
2022-12-18T11:46:39.198Z,15.70
2022-12-18T11:49:12.204Z,7.38
2022-12-18T11:51:44.188Z,12.45
2022-12-18T11:54:14.719Z,11.80
2022-12-18T11:56:48.450Z,10.45
2022-12-18T11:59:35.608Z,10.40
2022-12-18T12:02:18.854Z,12.38
2022-12-18T12:05:02.505Z,9.20
2022-12-18T12:07:45.758Z,8.45
2022-12-18T12:10:24.927Z,8.45
2022-12-18T12:13:11.550Z,12.85
2022-12-18T12:15:55.900Z,9.55
2022-12-18T12:18:34.605Z,10.40
2022-12-18T12:21:19.657Z,9.75
2022-12-18T12:24:06.387Z,9.55
2022-12-18T12:26:58.925Z,12.90
2022-12-18T12:29:34.586Z,8.93
2022-12-18T12:32:18.593Z,11.82
2022-12-18T12:35:10.238Z,9.60
2022-12-18T12:37:55.030Z,14.43
2022-12-18T12:40:52.103Z,8.48
2022-12-18T12:43:36.388Z,10.27
2022-12-18T12:46:08.552Z,12.18
2022-12-18T12:48:50.980Z,10.90
2022-12-18T12:51:21.152Z,6.95
2022-12-18T12:53:48.791Z,12.95
2022-12-18T12:56:20.835Z,11.43
2022-12-18T12:58:58.953Z,8.52
2022-12-18T13:01:47.396Z,11.27
2022-12-18T13:04:22.892Z,11.80
2022-12-18T13:07:06.715Z,9.63
2022-12-18T13:09:35.001Z,11.57
2022-12-18T13:12:24.492Z,7.03
2022-12-18T13:14:51.212Z,14.27
2022-12-18T13:17:30.233Z,10.20
2022-12-18T13:20:11.785Z,12.10
2022-12-18T13:22:45.430Z,10.18
2022-12-18T13:25:32.808Z,11.73
2022-12-18T13:28:09.845Z,11.38
2022-12-18T13:30:36.517Z,9.82
2022-12-18T13:33:18.883Z,9.25
2022-12-18T13:35:48.796Z,11.98
2022-12-18T13:38:34.936Z,8.68
2022-12-18T13:41:04.776Z,9.10
2022-12-18T13:43:44.431Z,13.05
2022-12-18T13:46:44.295Z,7.07
2022-12-18T13:49:14.754Z,9.43
2022-12-18T13:51:44.657Z,9.13
2022-12-18T13:54:23.527Z,10.05
2022-12-18T13:56:50.261Z,8.57
2022-12-18T13:59:22.245Z,9.73
2022-12-18T14:01:57.263Z,14.13
2022-12-18T14:04:35.088Z,6.72
2022-12-18T14:07:05.030Z,13.90
2022-12-18T14:09:35.923Z,6.32
2022-12-18T14:12:22.542Z,17.45
2022-12-18T14:14:53.133Z,11.63
2022-12-18T14:17:23.896Z,9.43
2022-12-18T14:19:51.972Z,8.73
2022-12-18T14:22:28.815Z,12.27
2022-12-18T14:25:13.820Z,11.57
2022-12-18T14:27:50.996Z,9.88
2022-12-18T14:30:29.724Z,11.30
2022-12-18T14:33:03.967Z,7.03
2022-12-18T14:35:30.931Z,10.82
2022-12-18T14:38:16.342Z,8.80
2022-12-18T14:43:13.903Z,7.47
2022-12-18T14:45:43.895Z,7.80
2022-12-18T14:48:19.102Z,9.18
2022-12-18T14:51:01.749Z,6.32
2022-12-18T14:53:34.603Z,6.68
2022-12-18T14:56:03.004Z,7.63
2022-12-18T14:58:30.019Z,6.85
2022-12-18T15:00:56.661Z,9.25
2022-12-18T15:03:23.519Z,7.35
2022-12-18T15:05:50.476Z,6.78
2022-12-18T15:08:32.844Z,8.88
2022-12-18T15:10:59.733Z,7.13
2022-12-18T15:13:26.827Z,9.93
2022-12-18T15:15:55.758Z,9.60
2022-12-18T15:18:29.001Z,7.88
2022-12-18T15:21:00.812Z,9.88
2022-12-18T15:23:36.925Z,8.40
2022-12-18T15:26:07.197Z,7.03
2022-12-18T15:29:00.863Z,5.75
2022-12-18T15:31:38.278Z,8.30
2022-12-18T15:34:24.119Z,6.35
2022-12-18T15:36:51.837Z,8.90
2022-12-18T15:39:19.329Z,6.82
2022-12-18T15:42:06.109Z,7.93
2022-12-18T15:44:33.300Z,10.02
2022-12-18T15:47:00.051Z,8.63
2022-12-18T15:49:26.840Z,4.85
2022-12-18T15:51:55.269Z,7.00
2022-12-18T15:54:54.774Z,6.68
2022-12-18T15:57:24.226Z,7.53
2022-12-18T15:59:53.737Z,6.18
2022-12-18T16:02:21.696Z,11.40
2022-12-18T16:04:50.786Z,8.88
2022-12-18T16:07:22.566Z,11.15
2022-12-18T16:09:50.022Z,18.65
2022-12-18T16:12:18.724Z,15.88
2022-12-18T16:14:45.650Z,14.07
2022-12-18T16:17:13.688Z,7.93
2022-12-18T16:19:40.846Z,7.03
2022-12-18T16:22:19.411Z,10.30
2022-12-18T16:24:46.102Z,7.90
2022-12-18T16:27:12.916Z,18.10
2022-12-18T16:29:40.190Z,10.35
2022-12-18T16:32:06.833Z,10.13
2022-12-18T16:34:36.095Z,9.10
2022-12-18T16:37:06.180Z,8.90
2022-12-18T16:39:37.341Z,8.15
2022-12-18T16:42:13.599Z,12.15
2022-12-18T16:44:40.358Z,8.35
2022-12-18T16:47:08.739Z,8.88
2022-12-18T16:49:38.112Z,13.07
2022-12-18T16:52:08.156Z,6.88
2022-12-18T16:54:36.519Z,9.38
2022-12-18T16:57:05.196Z,14.20
2022-12-18T16:59:31.865Z,12.10
2022-12-18T17:01:58.952Z,8.65
2022-12-18T17:04:25.807Z,8.30
2022-12-18T17:06:53.791Z,8.32
2022-12-18T17:09:28.367Z,11.75
2022-12-18T17:11:55.450Z,11.07
2022-12-18T17:14:28.309Z,7.50
2022-12-18T17:17:19.691Z,9.93
2022-12-18T17:19:43.407Z,12.23
2022-12-18T17:22:10.836Z,16.17
2022-12-18T17:24:37.561Z,11.32
2022-12-18T17:27:04.743Z,15.02
2022-12-18T17:29:32.337Z,11.75
2022-12-18T17:32:00.448Z,7.32
2022-12-18T17:34:27.553Z,11.75
2022-12-18T17:36:54.146Z,13.40
2022-12-18T17:39:21.233Z,7.85
2022-12-18T17:41:49.194Z,12.05
2022-12-18T17:44:18.234Z,8.48
2022-12-18T17:46:45.971Z,18.20
2022-12-18T17:49:13.946Z,8.75
2022-12-18T17:51:44.600Z,8.05
2022-12-18T17:54:11.233Z,11.88
2022-12-18T17:56:38.456Z,9.20
2022-12-18T17:59:06.798Z,6.50
2022-12-18T18:01:37.357Z,9.25
2022-12-18T18:04:07.762Z,9.00
2022-12-18T18:06:34.630Z,7.05
2022-12-18T18:09:05.322Z,6.75
2022-12-18T18:11:51.894Z,6.70
2022-12-18T18:14:21.604Z,5.63
2022-12-18T18:16:52.443Z,8.13
2022-12-18T18:19:21.440Z,7.90
2022-12-18T18:21:49.347Z,6.47
2022-12-18T18:24:19.447Z,8.57
2022-12-18T18:26:46.983Z,7.05
2022-12-18T18:29:16.921Z,7.55
2022-12-18T18:31:44.051Z,6.50
2022-12-18T18:34:19.077Z,8.48
2022-12-18T18:36:46.257Z,7.38
2022-12-18T18:39:13.719Z,9.02
2022-12-18T18:41:40.407Z,8.38
2022-12-18T18:44:10.129Z,9.15
2022-12-18T18:46:36.710Z,6.05
2022-12-18T18:49:03.319Z,5.88
2022-12-18T18:51:34.778Z,7.13
2022-12-18T18:54:02.026Z,6.60
2022-12-18T18:59:15.931Z,6.95
2022-12-18T19:01:43.483Z,6.47
2022-12-18T19:04:10.530Z,8.13
2022-12-18T19:06:37.156Z,7.78
2022-12-18T19:09:06.564Z,8.23
2022-12-18T19:11:52.191Z,4.40
2022-12-18T19:14:19.092Z,7.75
2022-12-18T19:16:45.836Z,7.32
2022-12-18T19:19:13.602Z,7.13
2022-12-18T19:21:40.829Z,5.82
2022-12-18T19:24:10.163Z,6.72
2022-12-18T19:26:37.633Z,9.45
2022-12-18T19:29:08.609Z,4.70
2022-12-18T19:31:37.141Z,7.57
2022-12-18T19:34:07.787Z,5.18
2022-12-18T19:36:36.244Z,5.25
2022-12-18T19:39:11.449Z,4.50
2022-12-18T19:41:38.725Z,5.30
2022-12-18T19:44:08.345Z,5.90
2022-12-18T19:46:35.868Z,6.05
2022-12-18T19:49:03.106Z,5.43
2022-12-18T19:51:30.866Z,6.32
2022-12-18T19:54:01.189Z,5.63
2022-12-18T19:56:31.475Z,6.43
2022-12-18T19:58:58.187Z,5.45
2022-12-18T20:01:26.808Z,6.50
2022-12-18T20:03:55.218Z,4.95
2022-12-18T20:06:28.929Z,8.50
2022-12-18T20:09:00.067Z,10.05
2022-12-18T20:11:28.318Z,8.38
2022-12-18T20:13:55.405Z,7.68
2022-12-18T20:16:22.076Z,7.20
2022-12-18T20:18:49.271Z,14.00
2022-12-18T20:21:16.159Z,6.78
2022-12-18T20:23:43.310Z,6.45
2022-12-18T20:26:10.922Z,6.57
2022-12-18T20:28:37.849Z,6.55
2022-12-18T20:31:13.503Z,4.97
2022-12-18T20:33:41.901Z,7.22
2022-12-18T20:36:12.990Z,5.95
2022-12-18T20:38:41.889Z,10.90
2022-12-18T20:41:12.227Z,7.05
2022-12-18T20:43:39.675Z,5.82
2022-12-18T20:46:09.678Z,4.95
2022-12-18T20:48:36.680Z,5.32
2022-12-18T20:51:06.540Z,4.47
2022-12-18T20:53:33.939Z,6.35
2022-12-18T20:56:07.446Z,4.25
2022-12-18T20:58:35.502Z,7.15
2022-12-18T21:01:09.520Z,4.53
2022-12-18T21:03:40.898Z,4.90
2022-12-18T21:06:08.623Z,6.80
2022-12-18T21:08:35.226Z,5.40
2022-12-18T21:11:40.780Z,4.63
2022-12-18T21:14:18.558Z,6.35
2022-12-18T21:16:45.476Z,5.90
2022-12-18T21:19:16.925Z,5.55
2022-12-18T21:21:44.180Z,5.75
2022-12-18T21:24:11.157Z,9.95
2022-12-18T21:26:44.852Z,3.88
2022-12-18T21:29:24.402Z,8.13
2022-12-18T21:31:53.799Z,5.30
2022-12-18T21:34:28.404Z,4.55
2022-12-18T21:36:57.174Z,4.68
2022-12-18T21:39:24.457Z,4.15
2022-12-18T21:42:10.132Z,4.93
2022-12-18T21:44:42.306Z,4.82
2022-12-18T21:47:14.555Z,4.20
2022-12-18T21:49:53.510Z,5.05
2022-12-18T21:52:31.482Z,4.70
2022-12-18T21:55:08.613Z,5.72
2022-12-18T21:57:37.735Z,5.97
2022-12-18T22:00:05.914Z,5.80
2022-12-18T22:02:38.838Z,6.53
2022-12-18T22:05:05.895Z,6.05
2022-12-18T22:07:32.479Z,3.85
2022-12-18T22:09:59.496Z,4.97
2022-12-18T22:12:35.856Z,6.80
2022-12-18T22:15:11.360Z,3.85
2022-12-18T22:17:40.580Z,4.65
2022-12-18T22:20:09.201Z,5.03
2022-12-18T22:22:35.776Z,5.28
2022-12-18T22:25:02.459Z,5.15
2022-12-18T22:27:29.016Z,3.20
2022-12-18T22:30:04.673Z,3.58
2022-12-18T22:32:35.619Z,5.50
2022-12-18T22:35:09.269Z,3.92
2022-12-18T22:37:39.536Z,4.35
2022-12-18T22:40:07.494Z,5.40
2022-12-18T22:42:35.214Z,5.13
2022-12-18T22:45:01.806Z,4.88
2022-12-18T22:47:30.487Z,5.60
2022-12-18T22:49:58.111Z,4.18
2022-12-18T22:52:25.306Z,4.35
2022-12-18T22:54:53.265Z,3.53
2022-12-18T22:57:22.098Z,4.05
2022-12-18T22:59:51.916Z,5.95
2022-12-18T23:02:19.042Z,5.57
2022-12-18T23:04:45.977Z,4.78
2022-12-18T23:07:12.713Z,3.58
2022-12-18T23:09:40.077Z,3.78
2022-12-18T23:12:07.193Z,7.05
2022-12-18T23:14:33.770Z,7.47
2022-12-18T23:17:01.130Z,3.67
2022-12-18T23:19:27.753Z,3.78
2022-12-18T23:21:58.234Z,4.57
2022-12-18T23:24:25.847Z,4.55
2022-12-18T23:26:52.390Z,3.33
2022-12-18T23:29:22.357Z,4.80
2022-12-18T23:31:49.188Z,4.40
2022-12-18T23:34:16.873Z,3.45
2022-12-18T23:36:46.218Z,6.15
2022-12-18T23:39:27.018Z,4.90
2022-12-18T23:42:00.597Z,3.45
2022-12-18T23:44:28.215Z,5.15
2022-12-18T23:46:55.489Z,4.43
2022-12-18T23:49:22.181Z,4.38
2022-12-18T23:51:49.046Z,4.03
2022-12-18T23:54:15.808Z,4.65
2022-12-18T23:56:43.017Z,4.90
2022-12-18T23:59:09.760Z,4.35
